sensor_id;sensor_type;location;lat;lon;timestamp;temperature;humidity
3550;DHT22;45572;48.804;8.330;2022-10-17T00:00:48;14.40;96.80
3550;DHT22;45572;48.804;8.330;2022-10-17T00:03:20;14.40;96.80
3550;DHT22;45572;48.804;8.330;2022-10-17T00:05:50;14.40;96.80
3550;DHT22;45572;48.804;8.330;2022-10-17T00:08:22;14.30;96.80
3550;DHT22;45572;48.804;8.330;2022-10-17T00:10:59;14.30;96.80
3550;DHT22;45572;48.804;8.330;2022-10-17T00:13:27;14.30;96.80
3550;DHT22;45572;48.804;8.330;2022-10-17T00:15:55;14.20;96.80
3550;DHT22;45572;48.804;8.330;2022-10-17T00:18:49;14.10;96.80
3550;DHT22;45572;48.804;8.330;2022-10-17T00:21:19;14.00;96.80
3550;DHT22;45572;48.804;8.330;2022-10-17T00:23:47;14.10;96.80
3550;DHT22;45572;48.804;8.330;2022-10-17T00:26:16;14.00;96.80
3550;DHT22;45572;48.804;8.330;2022-10-17T00:28:45;14.00;96.80
3550;DHT22;45572;48.804;8.330;2022-10-17T00:31:14;14.00;96.80
3550;DHT22;45572;48.804;8.330;2022-10-17T00:33:43;14.00;96.80
3550;DHT22;45572;48.804;8.330;2022-10-17T00:36:13;13.90;96.80
3550;DHT22;45572;48.804;8.330;2022-10-17T00:38:45;13.90;96.80
3550;DHT22;45572;48.804;8.330;2022-10-17T00:41:15;13.90;96.80
3550;DHT22;45572;48.804;8.330;2022-10-17T00:43:54;13.80;96.80
3550;DHT22;45572;48.804;8.330;2022-10-17T00:46:24;13.80;96.80
3550;DHT22;45572;48.804;8.330;2022-10-17T00:48:54;13.70;96.80
3550;DHT22;45572;48.804;8.330;2022-10-17T00:51:26;13.80;96.80
3550;DHT22;45572;48.804;8.330;2022-10-17T00:54:00;13.70;96.80
3550;DHT22;45572;48.804;8.330;2022-10-17T00:56:29;13.80;96.80
3550;DHT22;45572;48.804;8.330;2022-10-17T00:58:57;13.90;96.80
3550;DHT22;45572;48.804;8.330;2022-10-17T01:01:25;13.90;96.80
3550;DHT22;45572;48.804;8.330;2022-10-17T01:03:53;13.90;96.80
3550;DHT22;45572;48.804;8.330;2022-10-17T01:06:21;14.00;96.80
3550;DHT22;45572;48.804;8.330;2022-10-17T01:08:53;14.00;96.80
3550;DHT22;45572;48.804;8.330;2022-10-17T01:11:30;14.00;96.80
3550;DHT22;45572;48.804;8.330;2022-10-17T01:14:05;14.10;96.80
3550;DHT22;45572;48.804;8.330;2022-10-17T01:16:42;14.10;96.80
3550;DHT22;45572;48.804;8.330;2022-10-17T01:19:30;14.10;96.80
3550;DHT22;45572;48.804;8.330;2022-10-17T01:22:05;14.20;96.80
3550;DHT22;45572;48.804;8.330;2022-10-17T01:24:46;14.20;96.80
3550;DHT22;45572;48.804;8.330;2022-10-17T01:33:05;14.00;96.80
3550;DHT22;45572;48.804;8.330;2022-10-17T01:35:38;13.90;96.80
3550;DHT22;45572;48.804;8.330;2022-10-17T01:38:10;13.90;96.80
3550;DHT22;45572;48.804;8.330;2022-10-17T01:40:45;13.90;96.80
3550;DHT22;45572;48.804;8.330;2022-10-17T01:43:18;13.90;96.80
3550;DHT22;45572;48.804;8.330;2022-10-17T01:45:51;13.90;96.80
3550;DHT22;45572;48.804;8.330;2022-10-17T01:48:28;14.00;96.80
3550;DHT22;45572;48.804;8.330;2022-10-17T01:51:02;14.00;96.80
3550;DHT22;45572;48.804;8.330;2022-10-17T01:53:36;14.00;96.80
3550;DHT22;45572;48.804;8.330;2022-10-17T01:56:07;14.00;96.80
3550;DHT22;45572;48.804;8.330;2022-10-17T01:58:41;14.00;96.80
3550;DHT22;45572;48.804;8.330;2022-10-17T02:01:11;14.00;96.80
3550;DHT22;45572;48.804;8.330;2022-10-17T02:03:42;14.00;96.80
3550;DHT22;45572;48.804;8.330;2022-10-17T02:06:14;13.90;96.80
3550;DHT22;45572;48.804;8.330;2022-10-17T02:08:45;13.80;96.80
3550;DHT22;45572;48.804;8.330;2022-10-17T02:11:16;13.80;96.80
3550;DHT22;45572;48.804;8.330;2022-10-17T02:13:59;13.80;96.80
3550;DHT22;45572;48.804;8.330;2022-10-17T02:16:35;13.70;96.80
3550;DHT22;45572;48.804;8.330;2022-10-17T02:19:25;13.70;96.80
3550;DHT22;45572;48.804;8.330;2022-10-17T02:22:03;13.70;96.80
3550;DHT22;45572;48.804;8.330;2022-10-17T02:24:36;13.60;96.80
3550;DHT22;45572;48.804;8.330;2022-10-17T02:27:10;13.50;96.80
3550;DHT22;45572;48.804;8.330;2022-10-17T02:29:45;13.50;96.80
3550;DHT22;45572;48.804;8.330;2022-10-17T02:32:20;13.50;96.80
3550;DHT22;45572;48.804;8.330;2022-10-17T02:34:51;13.40;96.80
3550;DHT22;45572;48.804;8.330;2022-10-17T02:37:24;13.30;96.80
3550;DHT22;45572;48.804;8.330;2022-10-17T02:39:56;13.40;96.80
3550;DHT22;45572;48.804;8.330;2022-10-17T02:42:27;13.30;96.80
3550;DHT22;45572;48.804;8.330;2022-10-17T02:44:58;13.40;96.80
3550;DHT22;45572;48.804;8.330;2022-10-17T02:47:30;13.40;96.80
3550;DHT22;45572;48.804;8.330;2022-10-17T02:50:01;13.40;96.80
3550;DHT22;45572;48.804;8.330;2022-10-17T02:52:35;13.30;96.80
3550;DHT22;45572;48.804;8.330;2022-10-17T02:55:11;13.30;96.80
3550;DHT22;45572;48.804;8.330;2022-10-17T02:57:43;13.30;96.80
3550;DHT22;45572;48.804;8.330;2022-10-17T03:00:13;13.20;96.80
3550;DHT22;45572;48.804;8.330;2022-10-17T03:02:50;13.20;96.80
3550;DHT22;45572;48.804;8.330;2022-10-17T03:05:22;13.20;96.80
3550;DHT22;45572;48.804;8.330;2022-10-17T03:07:50;13.10;96.80
3550;DHT22;45572;48.804;8.330;2022-10-17T03:10:18;13.00;96.80
3550;DHT22;45572;48.804;8.330;2022-10-17T03:12:47;12.90;96.80
3550;DHT22;45572;48.804;8.330;2022-10-17T03:15:15;12.90;96.80
3550;DHT22;45572;48.804;8.330;2022-10-17T03:17:43;12.90;96.80
3550;DHT22;45572;48.804;8.330;2022-10-17T03:20:17;13.00;96.80
3550;DHT22;45572;48.804;8.330;2022-10-17T03:22:51;13.00;96.80
3550;DHT22;45572;48.804;8.330;2022-10-17T03:25:19;13.10;96.80
3550;DHT22;45572;48.804;8.330;2022-10-17T03:27:47;13.10;96.80
3550;DHT22;45572;48.804;8.330;2022-10-17T03:30:15;13.10;96.80
3550;DHT22;45572;48.804;8.330;2022-10-17T03:32:43;13.20;96.80
3550;DHT22;45572;48.804;8.330;2022-10-17T03:35:11;13.30;96.80
3550;DHT22;45572;48.804;8.330;2022-10-17T03:37:43;13.30;96.80
3550;DHT22;45572;48.804;8.330;2022-10-17T03:40:12;13.30;96.80
3550;DHT22;45572;48.804;8.330;2022-10-17T03:42:40;13.30;96.80
3550;DHT22;45572;48.804;8.330;2022-10-17T03:45:09;13.30;96.80
3550;DHT22;45572;48.804;8.330;2022-10-17T03:47:36;13.30;96.80
3550;DHT22;45572;48.804;8.330;2022-10-17T03:50:05;13.30;96.80
3550;DHT22;45572;48.804;8.330;2022-10-17T03:52:35;13.10;96.80
3550;DHT22;45572;48.804;8.330;2022-10-17T03:55:04;13.10;96.80
3550;DHT22;45572;48.804;8.330;2022-10-17T03:57:34;13.10;96.80
3550;DHT22;45572;48.804;8.330;2022-10-17T04:00:05;13.10;96.80
3550;DHT22;45572;48.804;8.330;2022-10-17T04:02:43;13.10;96.80
3550;DHT22;45572;48.804;8.330;2022-10-17T04:05:17;13.00;96.80
3550;DHT22;45572;48.804;8.330;2022-10-17T04:07:46;13.00;96.80
3550;DHT22;45572;48.804;8.330;2022-10-17T04:10:16;13.00;96.80
3550;DHT22;45572;48.804;8.330;2022-10-17T04:12:47;13.00;96.80
3550;DHT22;45572;48.804;8.330;2022-10-17T04:15:16;12.90;96.80
3550;DHT22;45572;48.804;8.330;2022-10-17T04:17:44;12.90;96.80
3550;DHT22;45572;48.804;8.330;2022-10-17T04:20:14;12.90;96.80
3550;DHT22;45572;48.804;8.330;2022-10-17T04:22:42;12.90;96.80
3550;DHT22;45572;48.804;8.330;2022-10-17T04:25:12;12.90;96.80
3550;DHT22;45572;48.804;8.330;2022-10-17T04:27:44;12.90;96.80
3550;DHT22;45572;48.804;8.330;2022-10-17T04:30:13;12.80;96.80
3550;DHT22;45572;48.804;8.330;2022-10-17T04:32:42;12.90;96.80
3550;DHT22;45572;48.804;8.330;2022-10-17T04:35:17;12.90;96.80
3550;DHT22;45572;48.804;8.330;2022-10-17T04:37:49;13.00;96.80
3550;DHT22;45572;48.804;8.330;2022-10-17T04:40:18;13.00;96.80
3550;DHT22;45572;48.804;8.330;2022-10-17T04:42:49;13.00;96.80
3550;DHT22;45572;48.804;8.330;2022-10-17T04:45:21;13.00;96.80
3550;DHT22;45572;48.804;8.330;2022-10-17T04:47:56;13.10;96.80
3550;DHT22;45572;48.804;8.330;2022-10-17T04:50:24;13.10;96.80
3550;DHT22;45572;48.804;8.330;2022-10-17T04:53:11;13.20;96.80
3550;DHT22;45572;48.804;8.330;2022-10-17T04:55:43;13.20;96.80
3550;DHT22;45572;48.804;8.330;2022-10-17T04:58:11;13.20;96.80
3550;DHT22;45572;48.804;8.330;2022-10-17T05:00:40;13.30;96.80
3550;DHT22;45572;48.804;8.330;2022-10-17T05:03:13;13.30;96.80
3550;DHT22;45572;48.804;8.330;2022-10-17T05:05:42;13.20;96.80
3550;DHT22;45572;48.804;8.330;2022-10-17T05:08:11;13.10;96.80
3550;DHT22;45572;48.804;8.330;2022-10-17T05:10:40;13.10;96.80
3550;DHT22;45572;48.804;8.330;2022-10-17T05:13:09;13.20;96.80
3550;DHT22;45572;48.804;8.330;2022-10-17T05:15:37;13.10;96.80
3550;DHT22;45572;48.804;8.330;2022-10-17T05:18:07;13.20;96.80
3550;DHT22;45572;48.804;8.330;2022-10-17T05:20:36;13.10;96.80
3550;DHT22;45572;48.804;8.330;2022-10-17T05:23:05;13.10;96.80
3550;DHT22;45572;48.804;8.330;2022-10-17T05:25:38;13.10;96.80
3550;DHT22;45572;48.804;8.330;2022-10-17T05:28:05;13.10;96.80
3550;DHT22;45572;48.804;8.330;2022-10-17T05:30:34;13.10;96.80
3550;DHT22;45572;48.804;8.330;2022-10-17T05:33:07;13.10;96.80
3550;DHT22;45572;48.804;8.330;2022-10-17T05:35:35;13.10;96.80
3550;DHT22;45572;48.804;8.330;2022-10-17T05:38:04;13.10;96.80
3550;DHT22;45572;48.804;8.330;2022-10-17T05:40:33;13.00;96.80
3550;DHT22;45572;48.804;8.330;2022-10-17T05:43:01;13.10;96.80
3550;DHT22;45572;48.804;8.330;2022-10-17T05:45:29;13.00;96.80
3550;DHT22;45572;48.804;8.330;2022-10-17T05:47:58;13.10;96.80
3550;DHT22;45572;48.804;8.330;2022-10-17T05:50:28;13.00;96.80
3550;DHT22;45572;48.804;8.330;2022-10-17T05:53:02;13.00;96.80
3550;DHT22;45572;48.804;8.330;2022-10-17T05:55:35;13.00;96.80
3550;DHT22;45572;48.804;8.330;2022-10-17T05:58:03;12.90;96.80
3550;DHT22;45572;48.804;8.330;2022-10-17T06:00:35;12.90;96.80
3550;DHT22;45572;48.804;8.330;2022-10-17T06:03:08;13.00;96.80
3550;DHT22;45572;48.804;8.330;2022-10-17T06:05:37;13.00;96.80
3550;DHT22;45572;48.804;8.330;2022-10-17T06:08:05;13.00;96.80
3550;DHT22;45572;48.804;8.330;2022-10-17T06:10:35;13.10;96.80
3550;DHT22;45572;48.804;8.330;2022-10-17T06:13:03;13.00;96.80
3550;DHT22;45572;48.804;8.330;2022-10-17T06:15:31;13.00;96.80
3550;DHT22;45572;48.804;8.330;2022-10-17T06:18:03;13.10;96.80
3550;DHT22;45572;48.804;8.330;2022-10-17T06:20:31;13.20;96.80
3550;DHT22;45572;48.804;8.330;2022-10-17T06:23:02;13.20;96.80
3550;DHT22;45572;48.804;8.330;2022-10-17T06:25:45;13.30;96.80
3550;DHT22;45572;48.804;8.330;2022-10-17T06:28:13;13.40;96.80
3550;DHT22;45572;48.804;8.330;2022-10-17T06:30:40;13.40;96.80
3550;DHT22;45572;48.804;8.330;2022-10-17T06:33:10;13.40;96.80
3550;DHT22;45572;48.804;8.330;2022-10-17T06:35:38;13.30;96.80
3550;DHT22;45572;48.804;8.330;2022-10-17T06:38:11;13.40;96.80
3550;DHT22;45572;48.804;8.330;2022-10-17T06:40:49;13.50;96.80
3550;DHT22;45572;48.804;8.330;2022-10-17T06:43:19;13.60;96.80
3550;DHT22;45572;48.804;8.330;2022-10-17T06:46:16;13.70;96.80
3550;DHT22;45572;48.804;8.330;2022-10-17T06:49:02;13.80;96.80
3550;DHT22;45572;48.804;8.330;2022-10-17T06:51:50;14.00;96.80
3550;DHT22;45572;48.804;8.330;2022-10-17T06:54:26;14.10;96.80
3550;DHT22;45572;48.804;8.330;2022-10-17T06:57:14;14.30;96.80
3550;DHT22;45572;48.804;8.330;2022-10-17T07:00:03;14.50;96.80
3550;DHT22;45572;48.804;8.330;2022-10-17T07:02:38;14.70;96.80
3550;DHT22;45572;48.804;8.330;2022-10-17T07:05:06;15.00;96.70
3550;DHT22;45572;48.804;8.330;2022-10-17T07:07:34;15.60;96.40
3550;DHT22;45572;48.804;8.330;2022-10-17T07:10:10;16.30;94.90
3550;DHT22;45572;48.804;8.330;2022-10-17T07:12:39;16.90;92.00
3550;DHT22;45572;48.804;8.330;2022-10-17T07:15:07;17.20;90.60
3550;DHT22;45572;48.804;8.330;2022-10-17T07:17:35;17.70;89.90
3550;DHT22;45572;48.804;8.330;2022-10-17T07:20:04;18.70;88.50
3550;DHT22;45572;48.804;8.330;2022-10-17T07:22:34;19.30;85.10
3550;DHT22;45572;48.804;8.330;2022-10-17T07:25:02;19.90;83.40
3550;DHT22;45572;48.804;8.330;2022-10-17T07:27:37;20.50;82.10
3550;DHT22;45572;48.804;8.330;2022-10-17T07:30:06;20.20;81.00
3550;DHT22;45572;48.804;8.330;2022-10-17T07:32:37;20.50;80.30
3550;DHT22;45572;48.804;8.330;2022-10-17T07:35:07;20.60;79.40
3550;DHT22;45572;48.804;8.330;2022-10-17T07:37:36;20.90;79.20
3550;DHT22;45572;48.804;8.330;2022-10-17T07:40:06;21.30;78.20
3550;DHT22;45572;48.804;8.330;2022-10-17T07:42:37;21.80;78.40
3550;DHT22;45572;48.804;8.330;2022-10-17T07:45:13;21.70;78.40
3550;DHT22;45572;48.804;8.330;2022-10-17T07:47:42;22.20;77.70
3550;DHT22;45572;48.804;8.330;2022-10-17T07:50:13;22.70;76.30
3550;DHT22;45572;48.804;8.330;2022-10-17T07:52:41;23.20;75.30
3550;DHT22;45572;48.804;8.330;2022-10-17T07:55:09;23.70;74.10
3550;DHT22;45572;48.804;8.330;2022-10-17T07:57:38;23.90;73.30
3550;DHT22;45572;48.804;8.330;2022-10-17T08:00:07;23.60;73.50
3550;DHT22;45572;48.804;8.330;2022-10-17T08:03:01;24.10;71.50
3550;DHT22;45572;48.804;8.330;2022-10-17T08:05:30;24.60;68.80
3550;DHT22;45572;48.804;8.330;2022-10-17T08:07:58;24.70;68.10
3550;DHT22;45572;48.804;8.330;2022-10-17T08:10:26;24.00;69.40
3550;DHT22;45572;48.804;8.330;2022-10-17T08:12:56;23.80;70.20
3550;DHT22;45572;48.804;8.330;2022-10-17T08:15:25;24.10;69.60
3550;DHT22;45572;48.804;8.330;2022-10-17T08:17:57;23.70;69.10
3550;DHT22;45572;48.804;8.330;2022-10-17T08:20:27;23.40;71.30
3550;DHT22;45572;48.804;8.330;2022-10-17T08:22:55;24.20;69.60
3550;DHT22;45572;48.804;8.330;2022-10-17T08:25:22;24.50;69.10
3550;DHT22;45572;48.804;8.330;2022-10-17T08:27:50;25.40;68.00
3550;DHT22;45572;48.804;8.330;2022-10-17T08:30:18;26.40;65.20
3550;DHT22;45572;48.804;8.330;2022-10-17T08:32:46;27.50;61.30
3550;DHT22;45572;48.804;8.330;2022-10-17T08:35:15;27.40;61.70
3550;DHT22;45572;48.804;8.330;2022-10-17T08:37:44;26.70;65.50
3550;DHT22;45572;48.804;8.330;2022-10-17T08:40:18;27.30;64.00
3550;DHT22;45572;48.804;8.330;2022-10-17T08:43:06;28.10;63.90
3550;DHT22;45572;48.804;8.330;2022-10-17T08:45:41;28.90;61.70
3550;DHT22;45572;48.804;8.330;2022-10-17T08:48:15;29.70;59.90
3550;DHT22;45572;48.804;8.330;2022-10-17T08:50:49;29.60;57.10
3550;DHT22;45572;48.804;8.330;2022-10-17T08:53:23;30.20;56.10
3550;DHT22;45572;48.804;8.330;2022-10-17T08:55:53;30.80;54.30
3550;DHT22;45572;48.804;8.330;2022-10-17T08:58:23;31.10;53.80
3550;DHT22;45572;48.804;8.330;2022-10-17T09:01:01;31.70;52.90
3550;DHT22;45572;48.804;8.330;2022-10-17T09:03:44;31.30;52.10
3550;DHT22;45572;48.804;8.330;2022-10-17T09:06:18;31.50;52.90
3550;DHT22;45572;48.804;8.330;2022-10-17T09:09:02;31.60;52.80
3550;DHT22;45572;48.804;8.330;2022-10-17T09:11:46;32.00;54.20
3550;DHT22;45572;48.804;8.330;2022-10-17T09:14:26;31.70;52.70
3550;DHT22;45572;48.804;8.330;2022-10-17T09:17:12;31.40;54.40
3550;DHT22;45572;48.804;8.330;2022-10-17T09:19:45;31.60;54.10
3550;DHT22;45572;48.804;8.330;2022-10-17T09:22:20;31.80;54.40
3550;DHT22;45572;48.804;8.330;2022-10-17T09:24:57;31.80;53.40
3550;DHT22;45572;48.804;8.330;2022-10-17T09:27:32;31.40;52.90
3550;DHT22;45572;48.804;8.330;2022-10-17T09:30:16;30.80;54.20
3550;DHT22;45572;48.804;8.330;2022-10-17T09:33:10;30.70;55.50
3550;DHT22;45572;48.804;8.330;2022-10-17T09:36:04;31.00;56.20
3550;DHT22;45572;48.804;8.330;2022-10-17T09:38:40;31.20;56.30
3550;DHT22;45572;48.804;8.330;2022-10-17T09:41:17;31.20;54.20
3550;DHT22;45572;48.804;8.330;2022-10-17T09:44:14;31.10;54.90
3550;DHT22;45572;48.804;8.330;2022-10-17T09:46:59;30.90;54.20
3550;DHT22;45572;48.804;8.330;2022-10-17T09:49:32;30.90;54.80
3550;DHT22;45572;48.804;8.330;2022-10-17T09:52:04;29.80;56.90
3550;DHT22;45572;48.804;8.330;2022-10-17T09:54:40;29.20;57.50
3550;DHT22;45572;48.804;8.330;2022-10-17T09:57:13;29.80;58.10
3550;DHT22;45572;48.804;8.330;2022-10-17T09:59:46;30.20;56.50
3550;DHT22;45572;48.804;8.330;2022-10-17T10:02:18;30.10;56.30
3550;DHT22;45572;48.804;8.330;2022-10-17T10:04:53;29.20;58.10
3550;DHT22;45572;48.804;8.330;2022-10-17T10:07:38;29.30;59.50
3550;DHT22;45572;48.804;8.330;2022-10-17T10:10:23;30.00;57.20
3550;DHT22;45572;48.804;8.330;2022-10-17T10:13:04;30.00;55.80
3550;DHT22;45572;48.804;8.330;2022-10-17T10:15:35;29.40;59.60
3550;DHT22;45572;48.804;8.330;2022-10-17T10:18:27;28.80;61.30
3550;DHT22;45572;48.804;8.330;2022-10-17T10:21:07;27.60;61.80
3550;DHT22;45572;48.804;8.330;2022-10-17T10:23:44;27.10;63.70
3550;DHT22;45572;48.804;8.330;2022-10-17T10:26:20;27.10;65.30
3550;DHT22;45572;48.804;8.330;2022-10-17T10:29:00;27.00;65.90
3550;DHT22;45572;48.804;8.330;2022-10-17T10:31:34;27.80;64.80
3550;DHT22;45572;48.804;8.330;2022-10-17T10:34:14;28.60;62.60
3550;DHT22;45572;48.804;8.330;2022-10-17T10:36:52;28.60;61.00
3550;DHT22;45572;48.804;8.330;2022-10-17T10:39:40;29.30;60.40
3550;DHT22;45572;48.804;8.330;2022-10-17T10:42:19;29.70;57.60
3550;DHT22;45572;48.804;8.330;2022-10-17T10:44:54;30.00;56.60
3550;DHT22;45572;48.804;8.330;2022-10-17T10:47:24;29.10;58.40
3550;DHT22;45572;48.804;8.330;2022-10-17T10:53:05;30.00;57.90
3550;DHT22;45572;48.804;8.330;2022-10-17T10:55:39;30.20;57.50
3550;DHT22;45572;48.804;8.330;2022-10-17T10:58:25;30.00;57.10
3550;DHT22;45572;48.804;8.330;2022-10-17T11:00:55;29.70;58.80
3550;DHT22;45572;48.804;8.330;2022-10-17T11:03:28;29.70;58.20
3550;DHT22;45572;48.804;8.330;2022-10-17T11:06:10;29.80;57.00
3550;DHT22;45572;48.804;8.330;2022-10-17T11:08:44;30.20;56.30
3550;DHT22;45572;48.804;8.330;2022-10-17T11:11:18;31.10;54.80
3550;DHT22;45572;48.804;8.330;2022-10-17T11:13:53;31.60;53.90
3550;DHT22;45572;48.804;8.330;2022-10-17T11:16:31;32.60;52.80
3550;DHT22;45572;48.804;8.330;2022-10-17T11:19:07;33.30;51.00
3550;DHT22;45572;48.804;8.330;2022-10-17T11:21:44;33.90;49.60
3550;DHT22;45572;48.804;8.330;2022-10-17T11:24:18;34.10;49.80
3550;DHT22;45572;48.804;8.330;2022-10-17T11:26:54;34.10;49.60
3550;DHT22;45572;48.804;8.330;2022-10-17T11:29:29;33.90;51.40
3550;DHT22;45572;48.804;8.330;2022-10-17T11:32:03;33.40;51.20
3550;DHT22;45572;48.804;8.330;2022-10-17T11:34:38;32.20;52.70
3550;DHT22;45572;48.804;8.330;2022-10-17T11:37:13;31.40;55.10
3550;DHT22;45572;48.804;8.330;2022-10-17T11:39:44;30.20;57.20
3550;DHT22;45572;48.804;8.330;2022-10-17T11:42:17;29.20;59.70
3550;DHT22;45572;48.804;8.330;2022-10-17T11:44:48;28.70;60.40
3550;DHT22;45572;48.804;8.330;2022-10-17T11:47:27;28.10;61.20
3550;DHT22;45572;48.804;8.330;2022-10-17T11:50:02;27.30;62.80
3550;DHT22;45572;48.804;8.330;2022-10-17T11:52:53;26.60;66.00
3550;DHT22;45572;48.804;8.330;2022-10-17T11:55:24;26.40;67.20
3550;DHT22;45572;48.804;8.330;2022-10-17T11:58:02;26.00;67.60
3550;DHT22;45572;48.804;8.330;2022-10-17T12:00:42;25.70;66.00
3550;DHT22;45572;48.804;8.330;2022-10-17T12:03:29;25.50;68.90
3550;DHT22;45572;48.804;8.330;2022-10-17T12:06:03;25.40;67.00
3550;DHT22;45572;48.804;8.330;2022-10-17T12:08:40;25.40;67.40
3550;DHT22;45572;48.804;8.330;2022-10-17T12:11:17;25.50;68.30
3550;DHT22;45572;48.804;8.330;2022-10-17T12:13:51;25.40;67.30
3550;DHT22;45572;48.804;8.330;2022-10-17T12:16:36;25.40;66.40
3550;DHT22;45572;48.804;8.330;2022-10-17T12:19:22;25.30;67.00
3550;DHT22;45572;48.804;8.330;2022-10-17T12:21:56;25.40;66.50
3550;DHT22;45572;48.804;8.330;2022-10-17T12:24:34;25.30;66.40
3550;DHT22;45572;48.804;8.330;2022-10-17T12:27:22;25.30;65.00
3550;DHT22;45572;48.804;8.330;2022-10-17T12:29:57;25.40;68.50
3550;DHT22;45572;48.804;8.330;2022-10-17T12:32:25;25.30;69.30
3550;DHT22;45572;48.804;8.330;2022-10-17T12:35:18;25.30;68.60
3550;DHT22;45572;48.804;8.330;2022-10-17T12:38:13;25.20;68.30
3550;DHT22;45572;48.804;8.330;2022-10-17T12:40:59;25.20;67.70
3550;DHT22;45572;48.804;8.330;2022-10-17T12:43:48;25.20;66.00
3550;DHT22;45572;48.804;8.330;2022-10-17T12:46:40;25.30;69.10
3550;DHT22;45572;48.804;8.330;2022-10-17T12:49:21;25.20;68.60
3550;DHT22;45572;48.804;8.330;2022-10-17T12:52:13;25.20;69.00
3550;DHT22;45572;48.804;8.330;2022-10-17T12:54:50;25.20;63.40
3550;DHT22;45572;48.804;8.330;2022-10-17T12:57:37;25.20;67.00
3550;DHT22;45572;48.804;8.330;2022-10-17T13:00:20;25.30;66.30
3550;DHT22;45572;48.804;8.330;2022-10-17T13:02:51;25.30;63.30
3550;DHT22;45572;48.804;8.330;2022-10-17T13:05:25;25.30;62.50
3550;DHT22;45572;48.804;8.330;2022-10-17T13:07:56;25.30;63.50
3550;DHT22;45572;48.804;8.330;2022-10-17T13:10:28;25.30;63.20
3550;DHT22;45572;48.804;8.330;2022-10-17T13:13:06;25.40;64.80
3550;DHT22;45572;48.804;8.330;2022-10-17T13:15:37;25.30;62.00
3550;DHT22;45572;48.804;8.330;2022-10-17T13:18:05;25.30;61.30
3550;DHT22;45572;48.804;8.330;2022-10-17T13:20:33;25.40;63.70
3550;DHT22;45572;48.804;8.330;2022-10-17T13:23:03;25.40;62.90
3550;DHT22;45572;48.804;8.330;2022-10-17T13:25:31;25.50;65.20
3550;DHT22;45572;48.804;8.330;2022-10-17T13:28:10;25.50;63.90
3550;DHT22;45572;48.804;8.330;2022-10-17T13:30:39;25.50;65.30
3550;DHT22;45572;48.804;8.330;2022-10-17T13:33:26;25.50;62.90
3550;DHT22;45572;48.804;8.330;2022-10-17T13:35:56;25.50;64.60
3550;DHT22;45572;48.804;8.330;2022-10-17T13:38:31;25.50;63.30
3550;DHT22;45572;48.804;8.330;2022-10-17T13:41:11;25.60;63.90
3550;DHT22;45572;48.804;8.330;2022-10-17T13:44:00;25.50;64.50
3550;DHT22;45572;48.804;8.330;2022-10-17T13:46:31;25.50;64.90
3550;DHT22;45572;48.804;8.330;2022-10-17T13:49:10;25.40;65.10
3550;DHT22;45572;48.804;8.330;2022-10-17T13:51:43;25.40;63.40
3550;DHT22;45572;48.804;8.330;2022-10-17T13:54:31;25.40;64.50
3550;DHT22;45572;48.804;8.330;2022-10-17T13:57:01;25.40;64.40
3550;DHT22;45572;48.804;8.330;2022-10-17T13:59:36;25.40;63.00
3550;DHT22;45572;48.804;8.330;2022-10-17T14:02:04;25.40;65.00
3550;DHT22;45572;48.804;8.330;2022-10-17T14:04:38;25.30;64.20
3550;DHT22;45572;48.804;8.330;2022-10-17T14:07:29;25.30;65.60
3550;DHT22;45572;48.804;8.330;2022-10-17T14:10:22;25.30;64.70
3550;DHT22;45572;48.804;8.330;2022-10-17T14:12:52;25.30;65.00
3550;DHT22;45572;48.804;8.330;2022-10-17T14:15:23;25.20;64.50
3550;DHT22;45572;48.804;8.330;2022-10-17T14:17:54;25.20;63.10
3550;DHT22;45572;48.804;8.330;2022-10-17T14:20:23;25.10;64.70
3550;DHT22;45572;48.804;8.330;2022-10-17T14:23:29;25.10;64.80
3550;DHT22;45572;48.804;8.330;2022-10-17T14:26:15;25.10;66.60
3550;DHT22;45572;48.804;8.330;2022-10-17T14:28:45;25.10;66.40
3550;DHT22;45572;48.804;8.330;2022-10-17T14:31:21;25.10;66.90
3550;DHT22;45572;48.804;8.330;2022-10-17T14:33:52;25.00;67.10
3550;DHT22;45572;48.804;8.330;2022-10-17T14:36:30;25.00;67.60
3550;DHT22;45572;48.804;8.330;2022-10-17T14:38:58;24.90;67.40
3550;DHT22;45572;48.804;8.330;2022-10-17T14:41:31;24.80;68.60
3550;DHT22;45572;48.804;8.330;2022-10-17T14:44:18;24.80;68.40
3550;DHT22;45572;48.804;8.330;2022-10-17T14:46:52;24.80;68.40
3550;DHT22;45572;48.804;8.330;2022-10-17T14:49:26;24.80;68.10
3550;DHT22;45572;48.804;8.330;2022-10-17T14:52:10;24.80;67.80
3550;DHT22;45572;48.804;8.330;2022-10-17T14:54:48;24.80;68.10
3550;DHT22;45572;48.804;8.330;2022-10-17T14:57:19;24.80;68.00
3550;DHT22;45572;48.804;8.330;2022-10-17T15:03:32;24.70;68.40
3550;DHT22;45572;48.804;8.330;2022-10-17T15:06:14;24.60;70.00
3550;DHT22;45572;48.804;8.330;2022-10-17T15:08:47;24.50;69.80
3550;DHT22;45572;48.804;8.330;2022-10-17T15:11:14;24.50;73.20
3550;DHT22;45572;48.804;8.330;2022-10-17T15:13:45;24.50;73.40
3550;DHT22;45572;48.804;8.330;2022-10-17T15:16:14;24.50;76.50
3550;DHT22;45572;48.804;8.330;2022-10-17T15:18:44;24.50;77.10
3550;DHT22;45572;48.804;8.330;2022-10-17T15:21:12;24.40;77.00
3550;DHT22;45572;48.804;8.330;2022-10-17T15:24:00;24.30;77.10
3550;DHT22;45572;48.804;8.330;2022-10-17T15:26:31;24.20;77.40
3550;DHT22;45572;48.804;8.330;2022-10-17T15:29:01;24.10;78.70
3550;DHT22;45572;48.804;8.330;2022-10-17T15:31:30;24.10;78.40
3550;DHT22;45572;48.804;8.330;2022-10-17T15:33:58;24.00;80.90
3550;DHT22;45572;48.804;8.330;2022-10-17T15:36:28;23.90;81.10
3550;DHT22;45572;48.804;8.330;2022-10-17T15:38:58;23.70;81.40
3550;DHT22;45572;48.804;8.330;2022-10-17T15:41:27;23.50;82.20
3550;DHT22;45572;48.804;8.330;2022-10-17T15:43:55;23.20;83.00
3550;DHT22;45572;48.804;8.330;2022-10-17T15:46:26;23.00;83.90
3550;DHT22;45572;48.804;8.330;2022-10-17T15:48:55;22.90;84.10
3550;DHT22;45572;48.804;8.330;2022-10-17T15:51:23;22.70;84.80
3550;DHT22;45572;48.804;8.330;2022-10-17T15:53:51;22.40;85.20
3550;DHT22;45572;48.804;8.330;2022-10-17T15:56:22;22.30;85.60
3550;DHT22;45572;48.804;8.330;2022-10-17T15:58:50;22.10;86.10
3550;DHT22;45572;48.804;8.330;2022-10-17T16:01:21;22.00;86.40
3550;DHT22;45572;48.804;8.330;2022-10-17T16:03:57;21.90;86.70
3550;DHT22;45572;48.804;8.330;2022-10-17T16:06:27;21.80;87.10
3550;DHT22;45572;48.804;8.330;2022-10-17T16:08:54;21.70;87.30
3550;DHT22;45572;48.804;8.330;2022-10-17T16:11:29;21.50;87.70
3550;DHT22;45572;48.804;8.330;2022-10-17T16:14:00;21.30;88.20
3550;DHT22;45572;48.804;8.330;2022-10-17T16:16:29;21.30;88.60
3550;DHT22;45572;48.804;8.330;2022-10-17T16:18:58;21.20;88.50
3550;DHT22;45572;48.804;8.330;2022-10-17T16:21:32;21.10;88.80
3550;DHT22;45572;48.804;8.330;2022-10-17T16:24:01;20.90;89.30
3550;DHT22;45572;48.804;8.330;2022-10-17T16:26:29;20.70;89.80
3550;DHT22;45572;48.804;8.330;2022-10-17T16:28:56;20.50;90.50
3550;DHT22;45572;48.804;8.330;2022-10-17T16:31:30;20.50;90.60
3550;DHT22;45572;48.804;8.330;2022-10-17T16:34:03;20.50;90.70
3550;DHT22;45572;48.804;8.330;2022-10-17T16:36:32;20.20;91.10
3550;DHT22;45572;48.804;8.330;2022-10-17T16:39:03;20.20;91.30